Time;durP1;ratioP1;P1;durP2;ratioP2;P2;SDS_P1;SDS_P2;PMS_P1;PMS_P2;Temp;Humidity;BMP_temperature;BMP_pressure;BME280_temperature;BME280_humidity;BME280_pressure;Samples;Min_cycle;Max_cycle;Signal;HPM_P1;HPM_P2
2021/04/18 00:00:10;;;;;;;8.55;5.78;;;;;;;;;;5076658;28;20277;-64
2021/04/18 00:02:37;;;;;;;9.82;5.07;;;;;;;;;;5076228;28;20202;-64
2021/04/18 00:05:06;;;;;;;4.85;4.20;;;;;;;;;;5075919;28;20190;-64
2021/04/18 00:07:32;;;;;;;8.05;4.53;;;;;;;;;;5076732;28;20203;-64
2021/04/18 00:09:59;;;;;;;13.05;5.72;;;;;;;;;;5076084;28;20427;-64
2021/04/18 00:12:26;;;;;;;7.80;5.10;;;;;;;;;;5076255;28;20637;-64
2021/04/18 00:14:53;;;;;;;8.15;5.25;;;;;;;;;;5076314;28;20286;-64
2021/04/18 00:17:20;;;;;;;6.93;4.60;;;;;;;;;;5076142;28;20203;-64
2021/04/18 00:19:47;;;;;;;7.45;4.68;;;;;;;;;;5075706;28;20198;-65
2021/04/18 00:22:14;;;;;;;9.55;4.85;;;;;;;;;;5075878;28;20285;-64
2021/04/18 00:24:41;;;;;;;8.27;4.85;;;;;;;;;;5075916;28;20646;-65
2021/04/18 00:27:08;;;;;;;7.15;5.90;;;;;;;;;;5075576;28;20226;-64
2021/04/18 00:29:35;;;;;;;13.68;6.35;;;;;;;;;;5075938;28;20229;-64
2021/04/18 00:32:01;;;;;;;10.43;6.47;;;;;;;;;;5075710;28;20229;-64
2021/04/18 00:34:28;;;;;;;13.20;6.32;;;;;;;;;;5075427;28;20195;-64
2021/04/18 00:36:56;;;;;;;6.40;5.05;;;;;;;;;;5075707;28;20282;-64
2021/04/18 00:39:22;;;;;;;6.55;4.65;;;;;;;;;;5075861;28;20286;-64
2021/04/18 00:41:49;;;;;;;11.25;5.20;;;;;;;;;;5075511;28;20194;-64
2021/04/18 00:44:16;;;;;;;6.70;4.32;;;;;;;;;;5075557;28;20203;-64
2021/04/18 00:46:42;;;;;;;7.65;4.78;;;;;;;;;;5075925;28;20196;-64
2021/04/18 00:49:09;;;;;;;5.13;4.45;;;;;;;;;;5075956;28;20570;-64
2021/04/18 00:51:36;;;;;;;9.45;5.25;;;;;;;;;;5074994;28;20222;-64
2021/04/18 00:54:04;;;;;;;7.13;4.70;;;;;;;;;;5075318;28;20287;-64
2021/04/18 00:56:31;;;;;;;7.95;4.40;;;;;;;;;;5075354;28;20249;-64
2021/04/18 00:58:58;;;;;;;11.18;5.20;;;;;;;;;;5075858;28;20199;-64
2021/04/18 01:01:24;;;;;;;8.90;5.70;;;;;;;;;;5075361;28;20202;-65
2021/04/18 01:03:51;;;;;;;7.07;5.78;;;;;;;;;;5075224;28;20620;-65
2021/04/18 01:06:18;;;;;;;7.78;5.20;;;;;;;;;;5074798;28;20298;-64
2021/04/18 01:08:45;;;;;;;9.75;5.15;;;;;;;;;;5075106;28;20285;-64
2021/04/18 01:11:12;;;;;;;21.85;13.60;;;;;;;;;;5075027;28;20287;-64
2021/04/18 01:13:39;;;;;;;14.73;6.03;;;;;;;;;;5074915;28;20297;-64
2021/04/18 01:16:06;;;;;;;9.90;6.05;;;;;;;;;;5074551;28;20663;-64
2021/04/18 01:18:33;;;;;;;6.57;4.68;;;;;;;;;;5074814;28;20642;-64
2021/04/18 01:21:05;;;;;;;12.57;5.10;;;;;;;;;;5074842;28;20209;-64
2021/04/18 01:23:31;;;;;;;5.78;4.63;;;;;;;;;;5074357;28;20194;-64
2021/04/18 01:25:58;;;;;;;8.98;5.75;;;;;;;;;;5074622;28;20550;-65
2021/04/18 01:28:25;;;;;;;10.20;6.43;;;;;;;;;;5074530;28;20248;-64
2021/04/18 01:30:51;;;;;;;7.70;5.43;;;;;;;;;;5074476;28;20221;-64
2021/04/18 01:33:19;;;;;;;12.05;6.03;;;;;;;;;;5074237;28;20196;-64
2021/04/18 01:35:47;;;;;;;15.00;8.10;;;;;;;;;;5074693;28;20202;-64
2021/04/18 01:38:15;;;;;;;8.80;5.65;;;;;;;;;;5074303;28;20198;-64
2021/04/18 01:40:43;;;;;;;5.57;4.82;;;;;;;;;;5074035;28;20661;-64
2021/04/18 01:43:12;;;;;;;12.05;5.70;;;;;;;;;;5073960;28;20266;-64
2021/04/18 01:45:39;;;;;;;6.50;5.90;;;;;;;;;;5073975;28;20191;-64
2021/04/18 01:48:06;;;;;;;6.70;5.40;;;;;;;;;;5073978;28;20203;-64
2021/04/18 01:50:34;;;;;;;7.03;4.75;;;;;;;;;;5074774;28;20516;-64
2021/04/18 01:53:01;;;;;;;7.95;5.70;;;;;;;;;;5074165;28;20201;-65
2021/04/18 01:55:28;;;;;;;13.18;5.80;;;;;;;;;;5074112;28;20207;-64
2021/04/18 01:57:55;;;;;;;8.40;5.43;;;;;;;;;;5074251;28;20197;-64
2021/04/18 02:00:22;;;;;;;9.60;5.72;;;;;;;;;;5073692;28;20272;-64
2021/04/18 02:02:49;;;;;;;7.97;5.75;;;;;;;;;;5074412;28;20221;-64
2021/04/18 02:05:16;;;;;;;8.00;6.80;;;;;;;;;;5073956;28;20197;-64
2021/04/18 02:07:43;;;;;;;13.57;9.45;;;;;;;;;;5073641;28;20656;-64
2021/04/18 02:10:09;;;;;;;11.15;6.00;;;;;;;;;;5073803;28;20191;-64
2021/04/18 02:12:37;;;;;;;10.50;6.03;;;;;;;;;;5074212;28;20645;-64
2021/04/18 02:15:04;;;;;;;7.47;6.07;;;;;;;;;;5073075;28;20199;-64
2021/04/18 02:17:31;;;;;;;9.40;6.00;;;;;;;;;;5074025;28;20534;-64
2021/04/18 02:19:57;;;;;;;9.57;5.70;;;;;;;;;;5073754;28;20195;-64
2021/04/18 02:22:24;;;;;;;11.85;5.95;;;;;;;;;;5073769;28;20199;-64
2021/04/18 02:24:51;;;;;;;8.25;6.25;;;;;;;;;;5073662;28;20194;-64
2021/04/18 02:27:18;;;;;;;18.45;6.57;;;;;;;;;;5074608;28;20201;-65
2021/04/18 02:29:45;;;;;;;8.65;5.57;;;;;;;;;;5076834;28;20223;-64
2021/04/18 02:32:12;;;;;;;16.58;7.22;;;;;;;;;;5075702;28;20549;-64
2021/04/18 02:34:39;;;;;;;12.98;8.13;;;;;;;;;;5074046;28;20234;-64
2021/04/18 02:37:05;;;;;;;8.93;6.80;;;;;;;;;;5073448;28;20278;-63
2021/04/18 02:39:32;;;;;;;11.23;6.43;;;;;;;;;;5074104;28;20201;-64
2021/04/18 02:41:59;;;;;;;12.38;6.70;;;;;;;;;;5074748;28;20199;-64
2021/04/18 02:44:25;;;;;;;10.63;6.60;;;;;;;;;;5073630;28;20623;-64
2021/04/18 02:46:53;;;;;;;13.73;7.80;;;;;;;;;;5073471;28;20190;-63
2021/04/18 02:49:20;;;;;;;11.15;6.97;;;;;;;;;;5072926;28;20270;-63
2021/04/18 02:51:46;;;;;;;10.80;7.35;;;;;;;;;;5073455;28;20688;-63
2021/04/18 02:54:13;;;;;;;9.70;7.50;;;;;;;;;;5073451;28;20293;-63
2021/04/18 02:56:40;;;;;;;12.30;6.90;;;;;;;;;;5073840;28;20198;-64
2021/04/18 02:59:06;;;;;;;10.40;7.63;;;;;;;;;;5073075;28;20853;-64
2021/04/18 03:01:33;;;;;;;9.48;7.30;;;;;;;;;;5073379;28;20198;-64
2021/04/18 03:04:01;;;;;;;8.27;6.50;;;;;;;;;;5073215;28;20581;-64
2021/04/18 03:06:27;;;;;;;15.70;7.55;;;;;;;;;;5072881;28;20212;-64
2021/04/18 03:08:54;;;;;;;15.00;7.53;;;;;;;;;;5073195;28;20190;-64
2021/04/18 03:11:21;;;;;;;11.88;7.55;;;;;;;;;;5072923;28;20226;-64
2021/04/18 03:13:47;;;;;;;9.25;7.47;;;;;;;;;;5072776;28;20648;-64
2021/04/18 03:16:14;;;;;;;14.35;7.72;;;;;;;;;;5073258;28;20194;-63
2021/04/18 03:18:41;;;;;;;10.82;6.60;;;;;;;;;;5072758;28;20293;-63
2021/04/18 03:21:08;;;;;;;13.25;8.10;;;;;;;;;;5073616;28;20288;-64
2021/04/18 03:23:35;;;;;;;16.02;8.50;;;;;;;;;;5072934;28;20239;-64
2021/04/18 03:26:02;;;;;;;12.32;8.88;;;;;;;;;;5072604;28;20204;-64
2021/04/18 03:28:29;;;;;;;10.68;7.90;;;;;;;;;;5075496;28;20656;-64
2021/04/18 03:30:55;;;;;;;12.30;7.70;;;;;;;;;;5077366;28;20215;-64
2021/04/18 03:33:23;;;;;;;15.90;8.82;;;;;;;;;;5076912;28;20549;-64
2021/04/18 03:35:49;;;;;;;15.32;9.32;;;;;;;;;;5076884;28;20281;-64
2021/04/18 03:38:17;;;;;;;12.07;8.18;;;;;;;;;;5076756;28;20199;-64
2021/04/18 03:40:44;;;;;;;10.68;8.35;;;;;;;;;;5077058;28;20195;-64
2021/04/18 03:43:10;;;;;;;16.13;9.30;;;;;;;;;;5076379;28;20281;-64
2021/04/18 03:45:37;;;;;;;12.48;8.48;;;;;;;;;;5076623;28;20194;-64
2021/04/18 03:48:04;;;;;;;16.83;8.75;;;;;;;;;;5076135;28;20208;-64
2021/04/18 03:50:31;;;;;;;12.20;8.90;;;;;;;;;;5076534;28;20300;-64
2021/04/18 03:52:58;;;;;;;13.68;8.68;;;;;;;;;;5076663;28;20198;-64
2021/04/18 03:55:26;;;;;;;15.60;9.77;;;;;;;;;;5076488;28;20201;-64
2021/04/18 03:57:53;;;;;;;12.68;9.15;;;;;;;;;;5076127;28;20195;-64
2021/04/18 04:00:20;;;;;;;19.10;9.50;;;;;;;;;;5076399;28;20196;-64
2021/04/18 04:02:47;;;;;;;13.52;8.98;;;;;;;;;;5076035;28;20661;-65
2021/04/18 04:05:14;;;;;;;15.52;9.18;;;;;;;;;;5076003;28;20251;-64
2021/04/18 04:07:41;;;;;;;15.88;10.25;;;;;;;;;;5076254;28;20199;-64
2021/04/18 04:10:08;;;;;;;13.32;10.65;;;;;;;;;;5076546;28;20220;-64
2021/04/18 04:12:35;;;;;;;15.27;9.70;;;;;;;;;;5076355;28;20194;-64
2021/04/18 04:15:02;;;;;;;14.82;9.50;;;;;;;;;;5075847;28;20285;-64
2021/04/18 04:17:29;;;;;;;16.02;9.70;;;;;;;;;;5076229;28;20194;-65
2021/04/18 04:19:55;;;;;;;21.33;10.45;;;;;;;;;;5076050;28;20293;-64
2021/04/18 04:22:22;;;;;;;13.32;10.05;;;;;;;;;;5076338;28;20198;-65
2021/04/18 04:24:49;;;;;;;16.90;12.27;;;;;;;;;;5076378;28;20239;-64
2021/04/18 04:27:16;;;;;;;14.90;10.02;;;;;;;;;;5075626;28;20223;-65
2021/04/18 04:29:43;;;;;;;13.43;10.10;;;;;;;;;;5075909;28;20194;-64
2021/04/18 04:32:10;;;;;;;17.40;9.98;;;;;;;;;;5075760;28;20331;-64
2021/04/18 04:34:37;;;;;;;16.90;11.07;;;;;;;;;;5066337;28;20202;-64
2021/04/18 04:37:04;;;;;;;16.75;11.15;;;;;;;;;;5068222;28;20201;-64
2021/04/18 04:39:31;;;;;;;18.52;10.82;;;;;;;;;;5074943;28;20191;-64
2021/04/18 04:41:58;;;;;;;20.38;11.38;;;;;;;;;;5075668;28;20274;-64
2021/04/18 04:44:24;;;;;;;13.57;9.93;;;;;;;;;;5075545;28;20195;-64
2021/04/18 04:46:52;;;;;;;20.20;11.13;;;;;;;;;;5075577;28;20328;-64
2021/04/18 04:49:19;;;;;;;15.38;11.15;;;;;;;;;;5075278;28;20683;-64
2021/04/18 04:51:46;;;;;;;15.45;11.38;;;;;;;;;;5075054;28;20633;-64
2021/04/18 04:54:12;;;;;;;14.80;10.45;;;;;;;;;;5075387;28;20194;-65
2021/04/18 04:56:39;;;;;;;20.52;10.98;;;;;;;;;;5075292;28;20194;-64
2021/04/18 04:59:06;;;;;;;14.98;10.05;;;;;;;;;;5075022;28;20191;-64
2021/04/18 05:01:32;;;;;;;17.90;10.70;;;;;;;;;;5075443;28;20606;-64
2021/04/18 05:04:00;;;;;;;19.58;11.93;;;;;;;;;;5074979;28;20187;-64
2021/04/18 05:06:26;;;;;;;17.63;10.50;;;;;;;;;;5075160;28;20191;-64
2021/04/18 05:08:53;;;;;;;19.88;12.18;;;;;;;;;;5075108;28;20199;-65
2021/04/18 05:11:20;;;;;;;18.20;11.68;;;;;;;;;;5074724;28;20222;-65
2021/04/18 05:13:47;;;;;;;16.27;12.02;;;;;;;;;;5075856;28;20553;-64
2021/04/18 05:16:13;;;;;;;14.88;10.65;;;;;;;;;;5074572;28;20285;-64
2021/04/18 05:18:42;;;;;;;16.40;11.50;;;;;;;;;;5074941;28;20547;-65
2021/04/18 05:21:09;;;;;;;18.45;10.73;;;;;;;;;;5074770;28;20205;-64
2021/04/18 05:23:36;;;;;;;13.23;10.07;;;;;;;;;;5074852;28;20385;-67
2021/04/18 05:26:03;;;;;;;17.40;11.50;;;;;;;;;;5074440;28;20194;-66
2021/04/18 05:28:29;;;;;;;20.67;11.25;;;;;;;;;;5074698;28;20217;-65
2021/04/18 05:30:57;;;;;;;16.63;10.45;;;;;;;;;;5074202;28;20216;-65
2021/04/18 05:33:24;;;;;;;16.33;11.40;;;;;;;;;;5075052;28;20217;-64
2021/04/18 05:35:51;;;;;;;18.83;10.63;;;;;;;;;;5074533;28;20226;-65
2021/04/18 05:38:18;;;;;;;19.02;12.52;;;;;;;;;;5074721;28;20194;-65
2021/04/18 05:40:45;;;;;;;19.35;10.82;;;;;;;;;;5074585;28;20194;-64
2021/04/18 05:43:12;;;;;;;20.10;11.60;;;;;;;;;;5074061;28;20194;-65
2021/04/18 05:45:38;;;;;;;19.80;12.23;;;;;;;;;;5074049;28;20195;-65
2021/04/18 05:48:05;;;;;;;17.50;11.40;;;;;;;;;;5073775;28;20647;-64
2021/04/18 05:50:32;;;;;;;20.33;12.27;;;;;;;;;;5073274;28;20183;-65
2021/04/18 05:52:59;;;;;;;13.63;10.32;;;;;;;;;;5074268;28;20583;-65
2021/04/18 05:55:26;;;;;;;19.08;13.38;;;;;;;;;;5073896;28;20190;-65
2021/04/18 05:57:53;;;;;;;15.30;10.55;;;;;;;;;;5073828;28;20200;-64
2021/04/18 06:00:20;;;;;;;20.30;12.95;;;;;;;;;;5074903;28;20198;-64
2021/04/18 06:02:48;;;;;;;16.40;12.35;;;;;;;;;;5074254;28;20203;-65
2021/04/18 06:05:15;;;;;;;15.77;11.52;;;;;;;;;;5073541;28;20192;-64
2021/04/18 06:07:42;;;;;;;16.90;11.45;;;;;;;;;;5074290;28;20194;-65
2021/04/18 06:10:09;;;;;;;18.80;12.45;;;;;;;;;;5073962;28;20194;-65
2021/04/18 06:12:36;;;;;;;20.73;12.43;;;;;;;;;;5074219;28;20236;-65
2021/04/18 06:15:03;;;;;;;18.08;10.43;;;;;;;;;;5073512;28;20198;-65
2021/04/18 06:17:30;;;;;;;18.58;12.02;;;;;;;;;;5073839;28;20202;-64
2021/04/18 06:19:57;;;;;;;15.93;11.00;;;;;;;;;;5073860;28;20206;-65
2021/04/18 06:22:24;;;;;;;12.75;9.82;;;;;;;;;;5074019;28;20289;-64
2021/04/18 06:24:50;;;;;;;25.08;12.05;;;;;;;;;;5074156;28;20201;-64
2021/04/18 06:27:17;;;;;;;21.40;12.70;;;;;;;;;;5073851;28;20256;-64
2021/04/18 06:29:45;;;;;;;17.63;11.18;;;;;;;;;;5073721;28;20293;-64
2021/04/18 06:32:11;;;;;;;16.05;11.27;;;;;;;;;;5073843;28;20237;-64
2021/04/18 06:34:38;;;;;;;21.92;11.70;;;;;;;;;;5073075;28;20194;-64
2021/04/18 06:37:05;;;;;;;18.80;12.75;;;;;;;;;;5073589;28;20198;-64
2021/04/18 06:39:32;;;;;;;20.27;12.52;;;;;;;;;;5073467;28;20244;-64
2021/04/18 06:42:01;;;;;;;15.25;11.57;;;;;;;;;;5073610;28;20278;-64
2021/04/18 06:44:29;;;;;;;16.63;12.15;;;;;;;;;;5073145;28;20204;-64
2021/04/18 06:46:57;;;;;;;18.73;12.27;;;;;;;;;;5073488;28;20195;-64
2021/04/18 06:49:24;;;;;;;21.60;13.07;;;;;;;;;;5072901;28;20339;-64
2021/04/18 06:51:52;;;;;;;18.58;13.23;;;;;;;;;;5072946;28;20219;-64
2021/04/18 06:54:19;;;;;;;28.05;12.85;;;;;;;;;;5072896;28;20674;-64
2021/04/18 06:56:45;;;;;;;21.83;13.20;;;;;;;;;;5072989;28;20286;-64
2021/04/18 06:59:13;;;;;;;21.63;13.48;;;;;;;;;;5073223;28;20243;-64
2021/04/18 07:01:40;;;;;;;18.58;13.52;;;;;;;;;;5074517;28;20200;-64
2021/04/18 07:04:14;;;;;;;13.75;12.00;;;;;;;;;;5076792;28;20645;-64
2021/04/18 07:06:41;;;;;;;18.83;14.15;;;;;;;;;;5077037;28;20190;-64
2021/04/18 07:09:08;;;;;;;19.50;13.27;;;;;;;;;;5077702;28;20551;-64
2021/04/18 07:11:59;;;;;;;17.73;12.93;;;;;;;;;;5077155;28;20313;-64
2021/04/18 07:14:27;;;;;;;19.15;14.15;;;;;;;;;;5066867;28;20661;-64
2021/04/18 07:16:54;;;;;;;17.88;14.82;;;;;;;;;;5076654;28;20191;-64
2021/04/18 07:19:26;;;;;;;24.80;13.98;;;;;;;;;;5076712;28;20652;-64
2021/04/18 07:21:54;;;;;;;18.70;14.07;;;;;;;;;;5077059;28;20192;-64
2021/04/18 07:24:21;;;;;;;18.55;12.68;;;;;;;;;;5077581;28;20348;-65
2021/04/18 07:26:56;;;;;;;17.35;12.85;;;;;;;;;;5076494;28;20201;-64
2021/04/18 07:29:23;;;;;;;18.83;13.35;;;;;;;;;;5076755;28;20207;-64
2021/04/18 07:31:50;;;;;;;19.73;13.52;;;;;;;;;;5076349;28;20271;-64
2021/04/18 07:34:17;;;;;;;13.05;11.60;;;;;;;;;;5076854;28;20302;-65
2021/04/18 07:36:45;;;;;;;18.73;11.90;;;;;;;;;;5078800;28;20229;-65
2021/04/18 07:39:13;;;;;;;19.20;12.80;;;;;;;;;;5078382;28;20329;-64
2021/04/18 07:41:41;;;;;;;20.20;12.65;;;;;;;;;;5078034;28;20329;-65
2021/04/18 07:44:14;;;;;;;22.48;13.40;;;;;;;;;;5076559;28;20203;-64
2021/04/18 07:46:41;;;;;;;16.98;12.95;;;;;;;;;;5076557;28;20590;-65
2021/04/18 07:49:09;;;;;;;14.50;10.43;;;;;;;;;;5076569;28;20323;-64
2021/04/18 07:51:35;;;;;;;13.00;10.15;;;;;;;;;;5077040;28;20220;-65
2021/04/18 07:54:03;;;;;;;18.02;11.80;;;;;;;;;;5076317;28;20200;-66
2021/04/18 07:56:30;;;;;;;13.88;10.80;;;;;;;;;;5076043;28;20199;-65
2021/04/18 07:58:57;;;;;;;16.52;11.90;;;;;;;;;;5075978;28;20202;-65
2021/04/18 08:01:24;;;;;;;14.23;11.23;;;;;;;;;;5076448;28;20201;-65
2021/04/18 08:03:51;;;;;;;17.75;10.77;;;;;;;;;;5075617;28;20712;-64
2021/04/18 08:06:19;;;;;;;14.65;10.95;;;;;;;;;;5076188;28;20231;-64
2021/04/18 08:08:47;;;;;;;14.27;10.77;;;;;;;;;;5076429;28;20202;-65
2021/04/18 08:11:15;;;;;;;15.98;11.65;;;;;;;;;;5075771;28;20309;-64
2021/04/18 08:13:43;;;;;;;14.30;10.52;;;;;;;;;;5075017;28;20283;-64
2021/04/18 08:16:10;;;;;;;15.50;12.05;;;;;;;;;;5076428;28;20222;-64
2021/04/18 08:18:39;;;;;;;13.25;9.77;;;;;;;;;;5076353;28;20197;-64
2021/04/18 08:21:21;;;;;;;17.90;10.85;;;;;;;;;;5075805;28;20212;-64
2021/04/18 08:23:47;;;;;;;16.00;10.80;;;;;;;;;;5075718;28;20270;-64
2021/04/18 08:26:16;;;;;;;15.75;10.95;;;;;;;;;;5075201;28;20194;-65
2021/04/18 08:29:05;;;;;;;13.65;9.82;;;;;;;;;;5075164;28;20330;-64
2021/04/18 08:31:32;;;;;;;19.23;10.23;;;;;;;;;;5075281;28;20241;-64
2021/04/18 08:34:00;;;;;;;18.35;10.63;;;;;;;;;;5075448;28;20226;-64
2021/04/18 08:36:28;;;;;;;14.70;10.20;;;;;;;;;;5075365;28;20206;-64
2021/04/18 08:39:09;;;;;;;14.32;10.32;;;;;;;;;;5075353;28;20199;-64
2021/04/18 08:41:40;;;;;;;13.85;9.32;;;;;;;;;;5075087;28;20196;-68
2021/04/18 08:44:14;;;;;;;12.40;8.75;;;;;;;;;;5075982;28;20533;-67
2021/04/18 08:46:40;;;;;;;18.25;9.25;;;;;;;;;;5075209;28;20236;-67
2021/04/18 08:49:07;;;;;;;11.93;8.40;;;;;;;;;;5074619;28;20235;-68
2021/04/18 08:51:34;;;;;;;13.00;9.02;;;;;;;;;;5075179;28;20482;-68
2021/04/18 08:54:01;;;;;;;13.00;8.10;;;;;;;;;;5074698;28;20207;-67
2021/04/18 08:56:43;;;;;;;13.15;9.20;;;;;;;;;;5075832;28;20531;-67
2021/04/18 08:59:11;;;;;;;13.90;8.85;;;;;;;;;;5075788;28;20180;-67
2021/04/18 09:01:37;;;;;;;12.15;9.18;;;;;;;;;;5074439;28;20300;-67
2021/04/18 09:04:09;;;;;;;16.50;9.70;;;;;;;;;;5075160;28;20194;-67
2021/04/18 09:06:37;;;;;;;12.93;9.38;;;;;;;;;;5075102;28;20757;-67
2021/04/18 09:09:05;;;;;;;15.65;8.90;;;;;;;;;;5074788;28;20196;-67
2021/04/18 09:11:37;;;;;;;10.93;8.82;;;;;;;;;;5074520;28;20226;-68
2021/04/18 09:14:03;;;;;;;10.55;8.50;;;;;;;;;;5074731;28;20234;-67
2021/04/18 09:16:32;;;;;;;15.05;9.27;;;;;;;;;;5074285;28;20198;-67
2021/04/18 09:19:13;;;;;;;13.40;9.47;;;;;;;;;;5074524;28;20275;-67
2021/04/18 09:21:40;;;;;;;11.13;8.80;;;;;;;;;;5074139;28;20445;-67
2021/04/18 09:24:07;;;;;;;12.17;10.70;;;;;;;;;;5074225;28;20196;-67
2021/04/18 09:26:33;;;;;;;23.40;10.43;;;;;;;;;;5074186;28;20876;-68
2021/04/18 09:29:10;;;;;;;15.47;9.40;;;;;;;;;;5074082;28;20486;-67
2021/04/18 09:31:52;;;;;;;11.83;8.43;;;;;;;;;;5074397;28;20471;-67
2021/04/18 09:34:20;;;;;;;13.20;9.70;;;;;;;;;;5074257;28;20443;-67
2021/04/18 09:36:47;;;;;;;10.67;9.10;;;;;;;;;;5074688;28;20522;-67
2021/04/18 09:39:13;;;;;;;17.40;9.67;;;;;;;;;;5074487;28;20509;-68
2021/04/18 09:41:40;;;;;;;17.20;9.17;;;;;;;;;;5074424;28;20535;-67
2021/04/18 09:44:08;;;;;;;13.50;8.90;;;;;;;;;;5074062;28;20960;-67
2021/04/18 09:46:48;;;;;;;11.88;9.45;;;;;;;;;;5073724;28;20508;-68
2021/04/18 09:49:15;;;;;;;16.43;9.63;;;;;;;;;;5074082;28;20246;-68
2021/04/18 09:51:51;;;;;;;10.27;9.17;;;;;;;;;;5073550;28;20475;-68
2021/04/18 09:54:29;;;;;;;14.27;8.37;;;;;;;;;;5073884;28;20469;-68
2021/04/18 09:57:12;;;;;;;15.93;9.57;;;;;;;;;;5074299;28;20429;-67
2021/04/18 09:59:39;;;;;;;12.63;9.07;;;;;;;;;;5073905;28;20775;-68
2021/04/18 10:02:16;;;;;;;13.77;8.70;;;;;;;;;;5073716;28;20441;-67
2021/04/18 10:04:44;;;;;;;10.50;9.40;;;;;;;;;;5073940;28;20428;-68
2021/04/18 10:07:25;;;;;;;12.30;8.27;;;;;;;;;;5073337;28;20458;-68
2021/04/18 10:09:53;;;;;;;13.10;9.20;;;;;;;;;;5073679;28;20482;-68
2021/04/18 10:12:19;;;;;;;17.13;10.30;;;;;;;;;;5073587;28;20540;-67
2021/04/18 10:14:47;;;;;;;16.53;10.87;;;;;;;;;;5073289;28;20531;-68
2021/04/18 10:17:32;;;;;;;13.90;9.77;;;;;;;;;;5073879;28;20519;-68
2021/04/18 10:20:00;;;;;;;12.67;8.90;;;;;;;;;;5073458;28;20435;-68
2021/04/18 10:22:29;;;;;;;12.80;10.47;;;;;;;;;;5073103;28;20449;-67
2021/04/18 10:24:57;;;;;;;12.90;9.93;;;;;;;;;;5073640;28;20449;-68
2021/04/18 10:27:25;;;;;;;11.23;9.60;;;;;;;;;;5072986;28;20445;-67
2021/04/18 10:29:52;;;;;;;12.97;10.77;;;;;;;;;;5073631;28;20432;-67
2021/04/18 10:32:19;;;;;;;11.40;9.67;;;;;;;;;;5072717;28;20484;-68
2021/04/18 10:34:47;;;;;;;18.13;9.67;;;;;;;;;;5073500;28;20440;-68
2021/04/18 10:37:15;;;;;;;12.30;9.57;;;;;;;;;;5072541;28;20489;-67
2021/04/18 10:39:42;;;;;;;13.60;9.97;;;;;;;;;;5064678;28;20487;-69
2021/04/18 10:42:10;;;;;;;14.33;9.67;;;;;;;;;;5060209;28;20507;-69
2021/04/18 10:44:36;;;;;;;11.97;9.20;;;;;;;;;;5053151;28;20456;-68
2021/04/18 10:47:04;;;;;;;16.77;10.87;;;;;;;;;;5052838;28;20442;-68
2021/04/18 10:49:31;;;;;;;14.00;10.70;;;;;;;;;;5052607;28;20560;-68
2021/04/18 10:51:59;;;;;;;12.47;9.77;;;;;;;;;;5053049;28;20567;-68
2021/04/18 10:54:28;;;;;;;13.03;9.87;;;;;;;;;;5053068;28;20460;-68
2021/04/18 10:56:55;;;;;;;15.53;10.30;;;;;;;;;;5052931;28;20584;-68
2021/04/18 10:59:22;;;;;;;14.43;9.70;;;;;;;;;;5052820;28;20439;-68
2021/04/18 11:01:49;;;;;;;14.80;11.00;;;;;;;;;;5052669;28;20544;-68
2021/04/18 11:04:16;;;;;;;10.90;9.20;;;;;;;;;;5052912;28;20528;-68
2021/04/18 11:06:43;;;;;;;15.43;10.83;;;;;;;;;;5051637;28;20452;-69
2021/04/18 11:09:10;;;;;;;14.80;10.20;;;;;;;;;;5052610;28;20437;-67
2021/04/18 11:11:40;;;;;;;17.50;10.60;;;;;;;;;;5052381;28;20476;-68
2021/04/18 11:14:07;;;;;;;13.50;10.53;;;;;;;;;;5052926;28;20540;-68
2021/04/18 11:16:34;;;;;;;18.40;10.13;;;;;;;;;;5052715;28;20445;-68
2021/04/18 11:19:02;;;;;;;11.87;9.43;;;;;;;;;;5053354;28;20804;-67
2021/04/18 11:21:29;;;;;;;12.73;10.63;;;;;;;;;;5053520;28;20541;-67
2021/04/18 11:23:56;;;;;;;11.40;9.73;;;;;;;;;;5053342;28;20476;-68
2021/04/18 11:26:23;;;;;;;16.57;10.67;;;;;;;;;;5052606;28;20990;-67
2021/04/18 11:28:52;;;;;;;11.30;9.43;;;;;;;;;;5052323;28;20958;-67
2021/04/18 11:31:18;;;;;;;11.47;9.30;;;;;;;;;;5053186;28;20585;-67
2021/04/18 11:33:45;;;;;;;12.40;10.20;;;;;;;;;;5068773;28;20432;-67
2021/04/18 11:36:12;;;;;;;16.23;9.63;;;;;;;;;;5071103;28;20437;-67
2021/04/18 11:38:39;;;;;;;12.03;10.07;;;;;;;;;;5070118;28;20489;-67
2021/04/18 11:41:05;;;;;;;11.00;9.27;;;;;;;;;;5052557;28;21006;-67
2021/04/18 11:43:32;;;;;;;11.70;9.70;;;;;;;;;;5052834;28;20437;-67
2021/04/18 11:46:00;;;;;;;13.80;10.20;;;;;;;;;;5052976;28;20442;-67
2021/04/18 11:48:26;;;;;;;10.40;9.33;;;;;;;;;;5053668;28;20476;-68
2021/04/18 11:50:53;;;;;;;10.50;9.20;;;;;;;;;;5056291;28;20451;-68
2021/04/18 11:53:20;;;;;;;14.40;10.07;;;;;;;;;;5056467;28;20512;-67
2021/04/18 11:55:47;;;;;;;18.37;11.13;;;;;;;;;;5056523;28;20529;-68
2021/04/18 11:58:14;;;;;;;10.50;8.70;;;;;;;;;;5056097;28;20449;-68
2021/04/18 12:00:40;;;;;;;12.00;8.30;;;;;;;;;;5056016;28;20533;-68
2021/04/18 12:03:09;;;;;;;9.37;8.43;;;;;;;;;;5055962;28;20917;-68
2021/04/18 12:05:37;;;;;;;10.90;7.73;;;;;;;;;;5056527;28;20445;-67
2021/04/18 12:08:04;;;;;;;16.27;8.70;;;;;;;;;;5055807;28;20485;-68
2021/04/18 12:10:31;;;;;;;10.13;8.70;;;;;;;;;;5055900;28;20452;-67
2021/04/18 12:12:58;;;;;;;22.53;10.20;;;;;;;;;;5056124;28;20572;-67
2021/04/18 12:15:26;;;;;;;9.77;8.57;;;;;;;;;;5055905;28;20532;-67
2021/04/18 12:17:53;;;;;;;14.93;9.60;;;;;;;;;;5055657;28;20924;-68
2021/04/18 12:20:20;;;;;;;11.57;9.00;;;;;;;;;;5054891;28;20970;-68
2021/04/18 12:22:47;;;;;;;14.60;9.10;;;;;;;;;;5055870;28;20556;-67
2021/04/18 12:25:15;;;;;;;10.13;8.10;;;;;;;;;;5055218;28;20589;-67
2021/04/18 12:27:42;;;;;;;13.10;9.00;;;;;;;;;;5055698;28;20449;-66
2021/04/18 12:30:10;;;;;;;11.13;8.23;;;;;;;;;;5055447;28;20437;-68
2021/04/18 12:32:36;;;;;;;13.37;9.80;;;;;;;;;;5054958;28;20563;-68
2021/04/18 12:35:03;;;;;;;11.73;8.43;;;;;;;;;;5055240;28;20438;-69
2021/04/18 12:37:31;;;;;;;16.50;9.20;;;;;;;;;;5055233;28;20894;-70
2021/04/18 12:39:58;;;;;;;13.87;8.83;;;;;;;;;;5055715;28;20450;-69
2021/04/18 12:42:25;;;;;;;13.67;9.93;;;;;;;;;;5055573;28;20545;-69
2021/04/18 12:44:51;;;;;;;9.67;8.67;;;;;;;;;;5056361;28;20942;-69
2021/04/18 12:47:18;;;;;;;10.90;9.83;;;;;;;;;;5057715;28;20453;-68
2021/04/18 12:49:46;;;;;;;9.07;8.17;;;;;;;;;;5057059;28;21021;-68
2021/04/18 12:52:13;;;;;;;10.17;8.80;;;;;;;;;;5055585;28;20487;-68
2021/04/18 12:54:45;;;;;;;12.83;9.43;;;;;;;;;;5055241;28;20528;-67
2021/04/18 12:57:16;;;;;;;13.33;9.47;;;;;;;;;;5054567;28;20485;-70
2021/04/18 12:59:43;;;;;;;11.63;9.43;;;;;;;;;;5054943;28;20430;-68
2021/04/18 13:02:10;;;;;;;11.27;9.23;;;;;;;;;;5055247;28;20528;-69
2021/04/18 13:04:37;;;;;;;16.20;10.30;;;;;;;;;;5055090;28;20532;-70
2021/04/18 13:07:04;;;;;;;15.50;8.70;;;;;;;;;;5054643;28;20532;-69
2021/04/18 13:09:31;;;;;;;12.93;10.23;;;;;;;;;;5054307;28;20532;-69
2021/04/18 13:11:58;;;;;;;11.47;9.80;;;;;;;;;;5054990;28;20589;-69
2021/04/18 13:14:25;;;;;;;15.77;10.40;;;;;;;;;;5054319;28;20525;-69
2021/04/18 13:16:53;;;;;;;12.97;10.30;;;;;;;;;;5054600;28;20450;-69
2021/04/18 13:19:20;;;;;;;16.57;11.10;;;;;;;;;;5054582;28;20507;-67
2021/04/18 13:21:47;;;;;;;13.20;10.07;;;;;;;;;;5054247;28;20452;-69
2021/04/18 13:24:15;;;;;;;9.57;8.50;;;;;;;;;;5054359;28;20544;-68
2021/04/18 13:26:44;;;;;;;12.90;9.83;;;;;;;;;;5054076;28;20912;-68
2021/04/18 13:29:13;;;;;;;15.97;10.27;;;;;;;;;;5053972;28;20453;-68
2021/04/18 13:31:39;;;;;;;10.43;9.33;;;;;;;;;;5054228;28;20535;-68
2021/04/18 13:34:06;;;;;;;9.47;8.43;;;;;;;;;;5053882;28;20481;-69
2021/04/18 13:36:34;;;;;;;12.47;10.20;;;;;;;;;;5053754;28;20451;-69
2021/04/18 13:39:00;;;;;;;11.33;9.33;;;;;;;;;;5053361;28;20442;-68
2021/04/18 13:41:28;;;;;;;12.90;9.47;;;;;;;;;;5053717;28;20441;-68
2021/04/18 13:43:55;;;;;;;13.23;9.60;;;;;;;;;;5052348;28;20457;-68
2021/04/18 13:46:23;;;;;;;10.03;9.00;;;;;;;;;;5053954;28;20851;-69
2021/04/18 13:48:50;;;;;;;11.63;10.00;;;;;;;;;;5054007;28;20473;-68
2021/04/18 13:51:17;;;;;;;12.60;9.00;;;;;;;;;;5053508;28;20481;-68
2021/04/18 13:53:44;;;;;;;11.80;9.20;;;;;;;;;;5053902;28;20552;-69
2021/04/18 13:56:11;;;;;;;15.57;10.07;;;;;;;;;;5053512;28;20445;-69
2021/04/18 13:58:38;;;;;;;15.27;9.83;;;;;;;;;;5053981;28;20465;-68
2021/04/18 14:01:05;;;;;;;11.70;10.50;;;;;;;;;;5053813;28;20544;-69
2021/04/18 14:03:35;;;;;;;9.93;8.93;;;;;;;;;;5054304;28;20458;-69
2021/04/18 14:06:02;;;;;;;19.77;9.23;;;;;;;;;;5053899;28;20460;-70
2021/04/18 14:08:29;;;;;;;10.23;9.23;;;;;;;;;;5053732;28;20535;-70
2021/04/18 14:10:56;;;;;;;11.17;8.83;;;;;;;;;;5052417;28;20442;-69
2021/04/18 14:13:23;;;;;;;15.97;10.27;;;;;;;;;;5053537;28;21008;-70
2021/04/18 14:15:50;;;;;;;13.60;10.93;;;;;;;;;;5053107;28;20884;-69
2021/04/18 14:18:17;;;;;;;11.13;10.00;;;;;;;;;;5053201;28;20496;-69
2021/04/18 14:20:45;;;;;;;18.43;10.50;;;;;;;;;;5053661;28;20556;-69
2021/04/18 14:23:12;;;;;;;11.37;10.17;;;;;;;;;;5052774;28;20504;-69
2021/04/18 14:25:39;;;;;;;21.87;18.83;;;;;;;;;;5052883;28;20491;-69
2021/04/18 14:28:06;;;;;;;23.43;15.73;;;;;;;;;;5053113;28;20484;-69